Tarnow, Poland
Current Conditions -  °F | °C
As of 9:30 AM on Thursday 23 Oct 2014 (Local Time) from EPRZ Reporting Station
Broken Clouds Broken Clouds  
Wind Chill: 38°   Ceiling: 1100
Heat Index: 45°   Visibility: 6mi
Dew Point: 45°   Wind: 15mph
Humidity: 100%   Direction: 50°NE
Pressure: 29.85"   Gusts: NA
Location:  50.01°N, 20.99°E
Report Text: EPRZ 230730Z 05013KT 9999 SCT006 BKN011 07/07 Q1011
Loading
Personal Weather Stations






























Interactive Weather Map
Tropical Storm Tracking
New forecast layout! Learn more

10-Day Weather Forecast

Advertisements
Track Severe Weather on mobile